View Park, Washington
Current Conditions -  °F | °C
As of 1:35 AM on Thursday 23 Oct 2014 (Local Time) from KPWT Reporting Station
Broken Clouds Broken Clouds  
Wind Chill: 52°   Ceiling: 2300
Heat Index: 52°   Visibility: 10mi
Dew Point: 52°   Wind: 7mph
Humidity: 100%   Direction: 210°SSW
Pressure: 29.74"   Gusts: NA
Location:  47.5378°N, 122.589°W
Report Text: KPWT 230835Z AUTO 21006KT 10SM FEW010 SCT018 BKN023 11/11 A2974 RMK AO1
Loading
Personal Weather Stations






























Interactive Weather Map
Tropical Storm Tracking
New forecast layout! Learn more

10-Day Weather Forecast

Advertisements
Track Severe Weather on mobile